sensor_id;sensor_type;location;lat;lon;timestamp;temperature;humidity
59469;DHT22;45277;52.768;18.262;2024-02-26T00:00:42;0.80;99.90
59469;DHT22;45277;52.768;18.262;2024-02-26T00:02:37;0.90;99.90
59469;DHT22;45277;52.768;18.262;2024-02-26T00:04:09;0.90;99.90
59469;DHT22;45277;52.768;18.262;2024-02-26T00:05:40;0.80;99.90
59469;DHT22;45277;52.768;18.262;2024-02-26T00:07:12;0.80;99.90
59469;DHT22;45277;52.768;18.262;2024-02-26T00:08:43;0.80;99.90
59469;DHT22;45277;52.768;18.262;2024-02-26T00:10:14;0.80;99.90
59469;DHT22;45277;52.768;18.262;2024-02-26T00:11:46;0.70;99.90
59469;DHT22;45277;52.768;18.262;2024-02-26T00:13:17;0.80;99.90
59469;DHT22;45277;52.768;18.262;2024-02-26T00:14:48;0.80;99.90
59469;DHT22;45277;52.768;18.262;2024-02-26T00:16:21;0.80;99.90
59469;DHT22;45277;52.768;18.262;2024-02-26T00:17:52;0.90;99.90
59469;DHT22;45277;52.768;18.262;2024-02-26T00:19:23;0.90;99.90
59469;DHT22;45277;52.768;18.262;2024-02-26T00:20:55;0.90;99.90
59469;DHT22;45277;52.768;18.262;2024-02-26T00:22:26;0.90;99.90
59469;DHT22;45277;52.768;18.262;2024-02-26T00:23:57;0.80;99.90
59469;DHT22;45277;52.768;18.262;2024-02-26T00:25:29;0.80;99.90
59469;DHT22;45277;52.768;18.262;2024-02-26T00:27:00;0.90;99.90
59469;DHT22;45277;52.768;18.262;2024-02-26T00:28:32;0.80;99.90
59469;DHT22;45277;52.768;18.262;2024-02-26T00:30:04;0.80;99.90
59469;DHT22;45277;52.768;18.262;2024-02-26T00:31:36;0.90;99.90
59469;DHT22;45277;52.768;18.262;2024-02-26T00:33:09;0.90;99.90
59469;DHT22;45277;52.768;18.262;2024-02-26T00:34:41;0.90;99.90
59469;DHT22;45277;52.768;18.262;2024-02-26T00:36:12;0.90;99.90
59469;DHT22;45277;52.768;18.262;2024-02-26T00:37:43;0.80;99.90
59469;DHT22;45277;52.768;18.262;2024-02-26T00:39:15;0.80;99.90
59469;DHT22;45277;52.768;18.262;2024-02-26T00:40:46;0.80;99.90
59469;DHT22;45277;52.768;18.262;2024-02-26T00:42:17;0.80;99.90
59469;DHT22;45277;52.768;18.262;2024-02-26T00:43:49;0.80;99.90
59469;DHT22;45277;52.768;18.262;2024-02-26T00:45:21;0.80;99.90
59469;DHT22;45277;52.768;18.262;2024-02-26T00:46:52;0.70;99.90
59469;DHT22;45277;52.768;18.262;2024-02-26T00:48:24;0.70;99.90
59469;DHT22;45277;52.768;18.262;2024-02-26T00:49:56;0.70;99.90
59469;DHT22;45277;52.768;18.262;2024-02-26T00:51:28;0.70;99.90
59469;DHT22;45277;52.768;18.262;2024-02-26T00:53:01;0.80;99.90
59469;DHT22;45277;52.768;18.262;2024-02-26T00:54:32;0.80;99.90
59469;DHT22;45277;52.768;18.262;2024-02-26T00:56:03;0.80;99.90
59469;DHT22;45277;52.768;18.262;2024-02-26T00:57:35;0.80;99.90
59469;DHT22;45277;52.768;18.262;2024-02-26T00:59:06;0.80;99.90
59469;DHT22;45277;52.768;18.262;2024-02-26T01:00:37;0.70;99.90
59469;DHT22;45277;52.768;18.262;2024-02-26T01:02:09;0.70;99.90
59469;DHT22;45277;52.768;18.262;2024-02-26T01:03:40;0.60;99.90
59469;DHT22;45277;52.768;18.262;2024-02-26T01:05:12;0.50;99.90
59469;DHT22;45277;52.768;18.262;2024-02-26T01:06:43;0.40;99.90
59469;DHT22;45277;52.768;18.262;2024-02-26T01:08:15;0.40;99.90
59469;DHT22;45277;52.768;18.262;2024-02-26T01:09:46;0.70;99.90
59469;DHT22;45277;52.768;18.262;2024-02-26T01:11:17;1.00;99.90
59469;DHT22;45277;52.768;18.262;2024-02-26T01:12:49;1.00;99.90
59469;DHT22;45277;52.768;18.262;2024-02-26T01:14:20;0.90;99.90
59469;DHT22;45277;52.768;18.262;2024-02-26T01:15:52;0.80;99.90
59469;DHT22;45277;52.768;18.262;2024-02-26T01:17:23;0.80;99.90
59469;DHT22;45277;52.768;18.262;2024-02-26T01:18:54;0.80;99.90
59469;DHT22;45277;52.768;18.262;2024-02-26T01:20:26;0.90;99.90
59469;DHT22;45277;52.768;18.262;2024-02-26T01:21:57;1.00;99.90
59469;DHT22;45277;52.768;18.262;2024-02-26T01:23:28;1.00;99.90
59469;DHT22;45277;52.768;18.262;2024-02-26T01:25:00;1.00;99.90
59469;DHT22;45277;52.768;18.262;2024-02-26T01:26:31;1.00;99.90
59469;DHT22;45277;52.768;18.262;2024-02-26T01:28:02;1.00;99.90
59469;DHT22;45277;52.768;18.262;2024-02-26T01:29:34;0.90;99.90
59469;DHT22;45277;52.768;18.262;2024-02-26T01:31:05;0.80;99.90
59469;DHT22;45277;52.768;18.262;2024-02-26T01:32:39;0.80;99.90
59469;DHT22;45277;52.768;18.262;2024-02-26T01:34:11;0.70;99.90
59469;DHT22;45277;52.768;18.262;2024-02-26T01:35:42;0.70;99.90
59469;DHT22;45277;52.768;18.262;2024-02-26T01:37:13;0.60;99.90
59469;DHT22;45277;52.768;18.262;2024-02-26T01:38:45;0.50;99.90
59469;DHT22;45277;52.768;18.262;2024-02-26T01:40:16;0.50;99.90
59469;DHT22;45277;52.768;18.262;2024-02-26T01:41:50;0.50;99.90
59469;DHT22;45277;52.768;18.262;2024-02-26T01:43:22;0.50;99.90
59469;DHT22;45277;52.768;18.262;2024-02-26T01:44:53;0.50;99.90
59469;DHT22;45277;52.768;18.262;2024-02-26T01:46:25;0.50;99.90
59469;DHT22;45277;52.768;18.262;2024-02-26T01:47:57;0.50;99.90
59469;DHT22;45277;52.768;18.262;2024-02-26T01:49:29;0.40;99.90
59469;DHT22;45277;52.768;18.262;2024-02-26T01:51:00;0.30;99.90
59469;DHT22;45277;52.768;18.262;2024-02-26T01:52:32;0.30;99.90
59469;DHT22;45277;52.768;18.262;2024-02-26T01:54:04;0.30;99.90
59469;DHT22;45277;52.768;18.262;2024-02-26T01:55:36;0.30;99.90
59469;DHT22;45277;52.768;18.262;2024-02-26T01:57:08;0.30;99.90
59469;DHT22;45277;52.768;18.262;2024-02-26T01:58:40;0.30;99.90
59469;DHT22;45277;52.768;18.262;2024-02-26T02:00:13;0.20;99.90
59469;DHT22;45277;52.768;18.262;2024-02-26T02:01:50;0.10;99.90
59469;DHT22;45277;52.768;18.262;2024-02-26T02:03:24;0.10;99.90
59469;DHT22;45277;52.768;18.262;2024-02-26T02:04:56;0.20;99.90
59469;DHT22;45277;52.768;18.262;2024-02-26T02:06:27;0.40;99.90
59469;DHT22;45277;52.768;18.262;2024-02-26T02:07:59;0.70;99.90
59469;DHT22;45277;52.768;18.262;2024-02-26T02:09:30;0.90;99.90
59469;DHT22;45277;52.768;18.262;2024-02-26T02:11:03;0.90;99.90
59469;DHT22;45277;52.768;18.262;2024-02-26T02:12:34;0.80;99.90
59469;DHT22;45277;52.768;18.262;2024-02-26T02:14:07;0.90;99.90
59469;DHT22;45277;52.768;18.262;2024-02-26T02:15:38;0.80;99.90
59469;DHT22;45277;52.768;18.262;2024-02-26T02:17:10;0.90;99.90
59469;DHT22;45277;52.768;18.262;2024-02-26T02:18:41;0.80;99.90
59469;DHT22;45277;52.768;18.262;2024-02-26T02:20:17;0.70;99.90
59469;DHT22;45277;52.768;18.262;2024-02-26T02:21:49;0.70;99.90
59469;DHT22;45277;52.768;18.262;2024-02-26T02:23:20;0.70;99.90
59469;DHT22;45277;52.768;18.262;2024-02-26T02:24:52;0.70;99.90
59469;DHT22;45277;52.768;18.262;2024-02-26T02:26:23;0.60;99.90
59469;DHT22;45277;52.768;18.262;2024-02-26T02:27:55;0.60;99.90
59469;DHT22;45277;52.768;18.262;2024-02-26T02:29:28;0.50;99.90
59469;DHT22;45277;52.768;18.262;2024-02-26T02:30:59;0.50;99.90
59469;DHT22;45277;52.768;18.262;2024-02-26T02:32:32;0.50;99.90
59469;DHT22;45277;52.768;18.262;2024-02-26T02:34:04;0.40;99.90
59469;DHT22;45277;52.768;18.262;2024-02-26T02:35:35;0.30;99.90
59469;DHT22;45277;52.768;18.262;2024-02-26T02:37:06;0.30;99.90
59469;DHT22;45277;52.768;18.262;2024-02-26T02:38:38;0.30;99.90
59469;DHT22;45277;52.768;18.262;2024-02-26T02:40:09;0.20;99.90
59469;DHT22;45277;52.768;18.262;2024-02-26T02:41:41;0.20;99.90
59469;DHT22;45277;52.768;18.262;2024-02-26T02:43:12;0.20;99.90
59469;DHT22;45277;52.768;18.262;2024-02-26T02:44:44;0.20;99.90
59469;DHT22;45277;52.768;18.262;2024-02-26T02:46:15;0.30;99.90
59469;DHT22;45277;52.768;18.262;2024-02-26T02:47:47;0.30;99.90
59469;DHT22;45277;52.768;18.262;2024-02-26T02:49:18;0.40;99.90
59469;DHT22;45277;52.768;18.262;2024-02-26T02:50:49;0.50;99.90
59469;DHT22;45277;52.768;18.262;2024-02-26T02:52:21;0.50;99.90
59469;DHT22;45277;52.768;18.262;2024-02-26T02:53:52;0.60;99.90
59469;DHT22;45277;52.768;18.262;2024-02-26T02:55:24;0.50;99.90
59469;DHT22;45277;52.768;18.262;2024-02-26T02:56:56;0.50;99.90
59469;DHT22;45277;52.768;18.262;2024-02-26T02:58:27;0.40;99.90
59469;DHT22;45277;52.768;18.262;2024-02-26T02:59:58;0.20;99.90
59469;DHT22;45277;52.768;18.262;2024-02-26T03:01:30;0.10;99.90
59469;DHT22;45277;52.768;18.262;2024-02-26T03:03:01;0.10;99.90
59469;DHT22;45277;52.768;18.262;2024-02-26T03:04:32;0.00;99.90
59469;DHT22;45277;52.768;18.262;2024-02-26T03:06:04;0.00;99.90
59469;DHT22;45277;52.768;18.262;2024-02-26T03:07:36;0.00;99.90
59469;DHT22;45277;52.768;18.262;2024-02-26T03:09:07;-0.10;99.90
59469;DHT22;45277;52.768;18.262;2024-02-26T03:10:39;-0.10;99.90
59469;DHT22;45277;52.768;18.262;2024-02-26T03:12:10;-0.20;99.90
59469;DHT22;45277;52.768;18.262;2024-02-26T03:13:41;-0.30;99.90
59469;DHT22;45277;52.768;18.262;2024-02-26T03:15:13;-0.30;99.90
59469;DHT22;45277;52.768;18.262;2024-02-26T03:16:44;-0.40;99.90
59469;DHT22;45277;52.768;18.262;2024-02-26T03:18:16;-0.40;99.90
59469;DHT22;45277;52.768;18.262;2024-02-26T03:19:48;-0.50;99.90
59469;DHT22;45277;52.768;18.262;2024-02-26T03:21:25;-0.60;99.90
59469;DHT22;45277;52.768;18.262;2024-02-26T03:22:56;-0.60;99.90
59469;DHT22;45277;52.768;18.262;2024-02-26T03:24:28;-0.70;99.90
59469;DHT22;45277;52.768;18.262;2024-02-26T03:25:59;-0.70;99.90
59469;DHT22;45277;52.768;18.262;2024-02-26T03:27:30;-0.70;99.90
59469;DHT22;45277;52.768;18.262;2024-02-26T03:29:02;-0.70;99.90
59469;DHT22;45277;52.768;18.262;2024-02-26T03:30:34;-0.80;99.90
59469;DHT22;45277;52.768;18.262;2024-02-26T03:32:06;-0.80;99.90
59469;DHT22;45277;52.768;18.262;2024-02-26T03:33:37;-0.80;99.90
59469;DHT22;45277;52.768;18.262;2024-02-26T03:35:09;-0.80;99.90
59469;DHT22;45277;52.768;18.262;2024-02-26T03:36:41;-0.80;99.90
59469;DHT22;45277;52.768;18.262;2024-02-26T03:38:13;-0.80;99.90
59469;DHT22;45277;52.768;18.262;2024-02-26T03:39:45;-0.80;99.90
59469;DHT22;45277;52.768;18.262;2024-02-26T03:41:16;-0.90;99.90
59469;DHT22;45277;52.768;18.262;2024-02-26T03:42:48;-0.80;99.90
59469;DHT22;45277;52.768;18.262;2024-02-26T03:44:19;-0.80;99.90
59469;DHT22;45277;52.768;18.262;2024-02-26T03:45:51;-0.80;99.90
59469;DHT22;45277;52.768;18.262;2024-02-26T03:47:22;-0.80;99.90
59469;DHT22;45277;52.768;18.262;2024-02-26T03:48:54;-0.80;99.90
59469;DHT22;45277;52.768;18.262;2024-02-26T03:50:25;-0.80;99.90
59469;DHT22;45277;52.768;18.262;2024-02-26T03:51:57;-0.80;99.90
59469;DHT22;45277;52.768;18.262;2024-02-26T03:53:28;-0.80;99.90
59469;DHT22;45277;52.768;18.262;2024-02-26T03:54:59;-0.80;99.90
59469;DHT22;45277;52.768;18.262;2024-02-26T03:56:31;-0.80;99.90
59469;DHT22;45277;52.768;18.262;2024-02-26T03:58:02;-0.80;99.90
59469;DHT22;45277;52.768;18.262;2024-02-26T03:59:34;-0.80;99.90
59469;DHT22;45277;52.768;18.262;2024-02-26T04:01:08;-0.80;99.90
59469;DHT22;45277;52.768;18.262;2024-02-26T04:02:40;-0.70;99.90
59469;DHT22;45277;52.768;18.262;2024-02-26T04:04:11;-0.70;99.90
59469;DHT22;45277;52.768;18.262;2024-02-26T04:05:42;-0.70;99.90
59469;DHT22;45277;52.768;18.262;2024-02-26T04:07:14;-0.70;99.90
59469;DHT22;45277;52.768;18.262;2024-02-26T04:08:45;-0.80;99.90
59469;DHT22;45277;52.768;18.262;2024-02-26T04:10:17;-0.80;99.90
59469;DHT22;45277;52.768;18.262;2024-02-26T04:11:48;-0.90;99.90
59469;DHT22;45277;52.768;18.262;2024-02-26T04:13:19;-1.00;99.90
59469;DHT22;45277;52.768;18.262;2024-02-26T04:14:51;-1.10;99.90
59469;DHT22;45277;52.768;18.262;2024-02-26T04:16:22;-1.10;99.90
59469;DHT22;45277;52.768;18.262;2024-02-26T04:17:54;-1.10;99.90
59469;DHT22;45277;52.768;18.262;2024-02-26T04:19:26;-1.20;99.90
59469;DHT22;45277;52.768;18.262;2024-02-26T04:20:57;-1.20;99.90
59469;DHT22;45277;52.768;18.262;2024-02-26T04:22:28;-1.20;99.90
59469;DHT22;45277;52.768;18.262;2024-02-26T04:24:00;-1.20;99.90
59469;DHT22;45277;52.768;18.262;2024-02-26T04:25:32;-1.20;99.90
59469;DHT22;45277;52.768;18.262;2024-02-26T04:27:04;-1.20;99.90
59469;DHT22;45277;52.768;18.262;2024-02-26T04:28:36;-1.20;99.90
59469;DHT22;45277;52.768;18.262;2024-02-26T04:30:07;-1.20;99.90
59469;DHT22;45277;52.768;18.262;2024-02-26T04:31:39;-1.10;99.90
59469;DHT22;45277;52.768;18.262;2024-02-26T04:33:10;-1.00;99.90
59469;DHT22;45277;52.768;18.262;2024-02-26T04:34:42;-1.00;99.90
59469;DHT22;45277;52.768;18.262;2024-02-26T04:36:14;-1.00;99.90
59469;DHT22;45277;52.768;18.262;2024-02-26T04:37:47;-1.00;99.90
59469;DHT22;45277;52.768;18.262;2024-02-26T04:39:18;-1.00;99.90
59469;DHT22;45277;52.768;18.262;2024-02-26T04:40:49;-0.90;99.90
59469;DHT22;45277;52.768;18.262;2024-02-26T04:42:21;-0.90;99.90
59469;DHT22;45277;52.768;18.262;2024-02-26T04:43:52;-0.90;99.90
59469;DHT22;45277;52.768;18.262;2024-02-26T04:45:24;-1.00;99.90
59469;DHT22;45277;52.768;18.262;2024-02-26T04:46:55;-1.00;99.90
59469;DHT22;45277;52.768;18.262;2024-02-26T04:48:27;-1.10;99.90
59469;DHT22;45277;52.768;18.262;2024-02-26T04:49:59;-1.00;99.90
59469;DHT22;45277;52.768;18.262;2024-02-26T04:51:30;-1.00;99.90
59469;DHT22;45277;52.768;18.262;2024-02-26T04:53:02;-0.90;99.90
59469;DHT22;45277;52.768;18.262;2024-02-26T04:54:33;-0.80;99.90
59469;DHT22;45277;52.768;18.262;2024-02-26T04:56:04;-0.80;99.90
59469;DHT22;45277;52.768;18.262;2024-02-26T04:57:36;-0.70;99.90
59469;DHT22;45277;52.768;18.262;2024-02-26T04:59:07;-0.60;99.90
59469;DHT22;45277;52.768;18.262;2024-02-26T05:00:38;-0.30;99.90
59469;DHT22;45277;52.768;18.262;2024-02-26T05:02:10;-0.10;99.90
59469;DHT22;45277;52.768;18.262;2024-02-26T05:03:41;0.10;99.90
59469;DHT22;45277;52.768;18.262;2024-02-26T05:05:13;0.20;99.90
59469;DHT22;45277;52.768;18.262;2024-02-26T05:06:44;0.30;99.90
59469;DHT22;45277;52.768;18.262;2024-02-26T05:08:15;0.40;99.90
59469;DHT22;45277;52.768;18.262;2024-02-26T05:09:47;0.40;99.90
59469;DHT22;45277;52.768;18.262;2024-02-26T05:11:20;0.30;99.90
59469;DHT22;45277;52.768;18.262;2024-02-26T05:12:51;0.30;99.90
59469;DHT22;45277;52.768;18.262;2024-02-26T05:14:23;0.20;99.90
59469;DHT22;45277;52.768;18.262;2024-02-26T05:15:54;0.20;99.90
59469;DHT22;45277;52.768;18.262;2024-02-26T05:17:26;0.10;99.90
59469;DHT22;45277;52.768;18.262;2024-02-26T05:18:57;0.00;99.90
59469;DHT22;45277;52.768;18.262;2024-02-26T05:20:29;-0.10;99.90
59469;DHT22;45277;52.768;18.262;2024-02-26T05:22:00;-0.20;99.90
59469;DHT22;45277;52.768;18.262;2024-02-26T05:23:31;-0.30;99.90
59469;DHT22;45277;52.768;18.262;2024-02-26T05:25:03;-0.50;99.90
59469;DHT22;45277;52.768;18.262;2024-02-26T05:26:35;-0.60;99.90
59469;DHT22;45277;52.768;18.262;2024-02-26T05:28:06;-0.70;99.90
59469;DHT22;45277;52.768;18.262;2024-02-26T05:29:38;-0.80;99.90
59469;DHT22;45277;52.768;18.262;2024-02-26T05:31:13;-0.90;99.90
59469;DHT22;45277;52.768;18.262;2024-02-26T05:32:44;-1.00;99.90
59469;DHT22;45277;52.768;18.262;2024-02-26T05:34:16;-1.10;99.90
59469;DHT22;45277;52.768;18.262;2024-02-26T05:35:47;-1.10;99.90
59469;DHT22;45277;52.768;18.262;2024-02-26T05:37:19;-1.10;99.90
59469;DHT22;45277;52.768;18.262;2024-02-26T05:38:50;-1.10;99.90
59469;DHT22;45277;52.768;18.262;2024-02-26T05:40:21;-1.00;99.90
59469;DHT22;45277;52.768;18.262;2024-02-26T05:41:52;-0.90;99.90
59469;DHT22;45277;52.768;18.262;2024-02-26T05:43:24;-0.90;99.90
59469;DHT22;45277;52.768;18.262;2024-02-26T05:44:55;-0.80;99.90
59469;DHT22;45277;52.768;18.262;2024-02-26T05:46:27;-0.80;99.90
59469;DHT22;45277;52.768;18.262;2024-02-26T05:47:58;-0.80;99.90
59469;DHT22;45277;52.768;18.262;2024-02-26T05:49:29;-0.80;99.90
59469;DHT22;45277;52.768;18.262;2024-02-26T05:51:01;-0.80;99.90
59469;DHT22;45277;52.768;18.262;2024-02-26T05:52:32;-0.70;99.90
59469;DHT22;45277;52.768;18.262;2024-02-26T05:54:03;-0.70;99.90
59469;DHT22;45277;52.768;18.262;2024-02-26T05:55:35;-0.70;99.90
59469;DHT22;45277;52.768;18.262;2024-02-26T05:57:06;-0.70;99.90
59469;DHT22;45277;52.768;18.262;2024-02-26T05:58:37;-0.60;99.90
59469;DHT22;45277;52.768;18.262;2024-02-26T06:00:09;-0.60;99.90
59469;DHT22;45277;52.768;18.262;2024-02-26T06:01:41;-0.50;99.90
59469;DHT22;45277;52.768;18.262;2024-02-26T06:03:12;-0.40;99.90
59469;DHT22;45277;52.768;18.262;2024-02-26T06:04:43;-0.40;99.90
59469;DHT22;45277;52.768;18.262;2024-02-26T06:06:15;-0.40;99.90
59469;DHT22;45277;52.768;18.262;2024-02-26T06:07:46;-0.40;99.90
59469;DHT22;45277;52.768;18.262;2024-02-26T06:09:18;-0.40;99.90
59469;DHT22;45277;52.768;18.262;2024-02-26T06:10:49;-0.40;99.90
59469;DHT22;45277;52.768;18.262;2024-02-26T06:12:20;-0.40;99.90
59469;DHT22;45277;52.768;18.262;2024-02-26T06:13:52;-0.40;99.90
59469;DHT22;45277;52.768;18.262;2024-02-26T06:15:24;-0.40;99.90
59469;DHT22;45277;52.768;18.262;2024-02-26T06:16:55;-0.40;99.90
59469;DHT22;45277;52.768;18.262;2024-02-26T06:18:26;-0.30;99.90
59469;DHT22;45277;52.768;18.262;2024-02-26T06:19:57;-0.30;99.90
59469;DHT22;45277;52.768;18.262;2024-02-26T06:21:30;-0.30;99.90
59469;DHT22;45277;52.768;18.262;2024-02-26T06:23:02;-0.20;99.90
59469;DHT22;45277;52.768;18.262;2024-02-26T06:24:33;-0.20;99.90
59469;DHT22;45277;52.768;18.262;2024-02-26T06:26:04;-0.10;99.90
59469;DHT22;45277;52.768;18.262;2024-02-26T06:27:35;-0.10;99.90
59469;DHT22;45277;52.768;18.262;2024-02-26T06:29:06;0.00;99.90
59469;DHT22;45277;52.768;18.262;2024-02-26T06:30:38;0.10;99.90
59469;DHT22;45277;52.768;18.262;2024-02-26T06:32:09;0.20;99.90
59469;DHT22;45277;52.768;18.262;2024-02-26T06:33:40;0.20;99.90
59469;DHT22;45277;52.768;18.262;2024-02-26T06:35:12;0.30;99.90
59469;DHT22;45277;52.768;18.262;2024-02-26T06:36:43;0.30;99.90
59469;DHT22;45277;52.768;18.262;2024-02-26T06:38:14;0.40;99.90
59469;DHT22;45277;52.768;18.262;2024-02-26T06:39:46;0.50;99.90
59469;DHT22;45277;52.768;18.262;2024-02-26T06:41:18;0.50;99.90
59469;DHT22;45277;52.768;18.262;2024-02-26T06:42:49;0.50;99.90
59469;DHT22;45277;52.768;18.262;2024-02-26T06:44:21;0.60;99.90
59469;DHT22;45277;52.768;18.262;2024-02-26T06:45:52;0.60;99.90
59469;DHT22;45277;52.768;18.262;2024-02-26T06:47:23;0.70;99.90
59469;DHT22;45277;52.768;18.262;2024-02-26T06:48:54;0.70;99.90
59469;DHT22;45277;52.768;18.262;2024-02-26T06:50:26;0.70;99.90
59469;DHT22;45277;52.768;18.262;2024-02-26T06:51:57;0.70;99.90
59469;DHT22;45277;52.768;18.262;2024-02-26T06:53:29;0.70;99.90
59469;DHT22;45277;52.768;18.262;2024-02-26T06:55:01;0.70;99.90
59469;DHT22;45277;52.768;18.262;2024-02-26T06:56:32;0.70;99.90
59469;DHT22;45277;52.768;18.262;2024-02-26T06:58:03;0.70;99.90
59469;DHT22;45277;52.768;18.262;2024-02-26T06:59:35;0.80;99.90
59469;DHT22;45277;52.768;18.262;2024-02-26T07:01:06;0.80;99.90
59469;DHT22;45277;52.768;18.262;2024-02-26T07:02:39;0.80;99.90
59469;DHT22;45277;52.768;18.262;2024-02-26T07:04:10;0.90;99.90
59469;DHT22;45277;52.768;18.262;2024-02-26T07:05:41;0.90;99.90
59469;DHT22;45277;52.768;18.262;2024-02-26T07:07:13;0.90;99.90
59469;DHT22;45277;52.768;18.262;2024-02-26T07:08:44;1.00;99.90
59469;DHT22;45277;52.768;18.262;2024-02-26T07:10:16;1.20;99.90
59469;DHT22;45277;52.768;18.262;2024-02-26T07:11:47;1.20;99.90
59469;DHT22;45277;52.768;18.262;2024-02-26T07:13:18;1.30;99.90
59469;DHT22;45277;52.768;18.262;2024-02-26T07:14:49;1.30;99.90
59469;DHT22;45277;52.768;18.262;2024-02-26T07:16:21;1.30;99.90
59469;DHT22;45277;52.768;18.262;2024-02-26T07:17:53;1.40;99.90
59469;DHT22;45277;52.768;18.262;2024-02-26T07:19:24;1.40;99.90
59469;DHT22;45277;52.768;18.262;2024-02-26T07:20:55;1.40;99.90
59469;DHT22;45277;52.768;18.262;2024-02-26T07:22:27;1.50;99.90
59469;DHT22;45277;52.768;18.262;2024-02-26T07:23:58;1.60;99.90
59469;DHT22;45277;52.768;18.262;2024-02-26T07:25:29;1.70;99.90
59469;DHT22;45277;52.768;18.262;2024-02-26T07:27:00;1.80;99.90
59469;DHT22;45277;52.768;18.262;2024-02-26T07:28:32;2.00;99.90
59469;DHT22;45277;52.768;18.262;2024-02-26T07:30:03;2.10;99.90
59469;DHT22;45277;52.768;18.262;2024-02-26T07:31:35;2.20;99.90
59469;DHT22;45277;52.768;18.262;2024-02-26T07:33:06;2.30;99.90
59469;DHT22;45277;52.768;18.262;2024-02-26T07:34:38;2.50;99.90
59469;DHT22;45277;52.768;18.262;2024-02-26T07:36:12;2.60;99.90
59469;DHT22;45277;52.768;18.262;2024-02-26T07:37:44;2.70;99.90
59469;DHT22;45277;52.768;18.262;2024-02-26T07:39:15;2.80;99.90
59469;DHT22;45277;52.768;18.262;2024-02-26T07:40:46;3.00;99.90
59469;DHT22;45277;52.768;18.262;2024-02-26T07:42:17;3.10;99.90
59469;DHT22;45277;52.768;18.262;2024-02-26T07:43:49;3.20;99.90
59469;DHT22;45277;52.768;18.262;2024-02-26T07:45:20;3.30;99.90
59469;DHT22;45277;52.768;18.262;2024-02-26T07:46:51;3.40;99.90
59469;DHT22;45277;52.768;18.262;2024-02-26T07:48:22;3.50;99.90
59469;DHT22;45277;52.768;18.262;2024-02-26T07:49:54;3.60;99.90
59469;DHT22;45277;52.768;18.262;2024-02-26T07:51:25;3.80;99.90
59469;DHT22;45277;52.768;18.262;2024-02-26T07:52:56;3.80;99.90
59469;DHT22;45277;52.768;18.262;2024-02-26T07:54:28;3.90;99.90
59469;DHT22;45277;52.768;18.262;2024-02-26T07:55:59;4.00;99.90
59469;DHT22;45277;52.768;18.262;2024-02-26T07:57:32;4.10;99.90
59469;DHT22;45277;52.768;18.262;2024-02-26T07:59:03;4.20;99.90
59469;DHT22;45277;52.768;18.262;2024-02-26T08:00:34;4.40;99.90
59469;DHT22;45277;52.768;18.262;2024-02-26T08:02:05;4.40;99.90
59469;DHT22;45277;52.768;18.262;2024-02-26T08:03:37;4.60;99.90
59469;DHT22;45277;52.768;18.262;2024-02-26T08:05:09;4.70;99.90
59469;DHT22;45277;52.768;18.262;2024-02-26T08:06:40;4.80;99.90
59469;DHT22;45277;52.768;18.262;2024-02-26T08:08:11;4.90;99.90
59469;DHT22;45277;52.768;18.262;2024-02-26T08:09:42;5.00;99.90
59469;DHT22;45277;52.768;18.262;2024-02-26T08:11:15;5.10;99.90
59469;DHT22;45277;52.768;18.262;2024-02-26T08:12:47;5.10;99.90
59469;DHT22;45277;52.768;18.262;2024-02-26T08:14:18;5.20;99.90
59469;DHT22;45277;52.768;18.262;2024-02-26T08:15:49;5.30;99.90
59469;DHT22;45277;52.768;18.262;2024-02-26T08:17:21;5.30;99.90
59469;DHT22;45277;52.768;18.262;2024-02-26T08:18:52;5.50;99.90
59469;DHT22;45277;52.768;18.262;2024-02-26T08:20:23;5.60;99.90
59469;DHT22;45277;52.768;18.262;2024-02-26T08:21:55;5.70;99.90
59469;DHT22;45277;52.768;18.262;2024-02-26T08:23:26;5.80;99.90
59469;DHT22;45277;52.768;18.262;2024-02-26T08:24:57;5.80;99.90
59469;DHT22;45277;52.768;18.262;2024-02-26T08:26:29;5.90;99.90
59469;DHT22;45277;52.768;18.262;2024-02-26T08:28:00;5.90;99.90
59469;DHT22;45277;52.768;18.262;2024-02-26T08:29:31;6.00;99.90
59469;DHT22;45277;52.768;18.262;2024-02-26T08:31:03;6.10;99.90
59469;DHT22;45277;52.768;18.262;2024-02-26T08:32:34;6.20;99.90
59469;DHT22;45277;52.768;18.262;2024-02-26T08:34:05;6.20;99.90
59469;DHT22;45277;52.768;18.262;2024-02-26T08:35:37;6.20;99.90
59469;DHT22;45277;52.768;18.262;2024-02-26T08:37:09;6.30;99.90
59469;DHT22;45277;52.768;18.262;2024-02-26T08:38:40;6.30;99.90
59469;DHT22;45277;52.768;18.262;2024-02-26T08:40:12;6.30;99.90
59469;DHT22;45277;52.768;18.262;2024-02-26T08:41:43;6.40;99.90
59469;DHT22;45277;52.768;18.262;2024-02-26T08:43:15;6.40;99.90
59469;DHT22;45277;52.768;18.262;2024-02-26T08:44:46;6.50;99.90
59469;DHT22;45277;52.768;18.262;2024-02-26T08:46:17;6.50;99.90
59469;DHT22;45277;52.768;18.262;2024-02-26T08:47:49;6.60;99.90
59469;DHT22;45277;52.768;18.262;2024-02-26T08:49:20;6.70;99.90
59469;DHT22;45277;52.768;18.262;2024-02-26T08:50:54;6.80;99.90
59469;DHT22;45277;52.768;18.262;2024-02-26T08:52:25;6.80;99.90
59469;DHT22;45277;52.768;18.262;2024-02-26T08:53:57;6.90;99.90
59469;DHT22;45277;52.768;18.262;2024-02-26T08:55:28;6.90;99.90
59469;DHT22;45277;52.768;18.262;2024-02-26T08:56:59;7.00;99.90
59469;DHT22;45277;52.768;18.262;2024-02-26T08:58:31;7.00;99.90
59469;DHT22;45277;52.768;18.262;2024-02-26T09:00:02;7.10;99.90
59469;DHT22;45277;52.768;18.262;2024-02-26T09:01:34;7.20;99.90
59469;DHT22;45277;52.768;18.262;2024-02-26T09:03:05;7.30;99.90
59469;DHT22;45277;52.768;18.262;2024-02-26T09:04:36;7.30;99.90
59469;DHT22;45277;52.768;18.262;2024-02-26T09:06:07;7.50;99.90
59469;DHT22;45277;52.768;18.262;2024-02-26T09:07:39;7.60;99.90
59469;DHT22;45277;52.768;18.262;2024-02-26T09:09:10;7.60;99.90
59469;DHT22;45277;52.768;18.262;2024-02-26T09:10:42;7.70;99.90
59469;DHT22;45277;52.768;18.262;2024-02-26T09:12:13;7.80;99.90
59469;DHT22;45277;52.768;18.262;2024-02-26T09:13:45;7.80;99.90
59469;DHT22;45277;52.768;18.262;2024-02-26T09:15:16;7.90;99.90
59469;DHT22;45277;52.768;18.262;2024-02-26T09:16:47;7.90;99.90
59469;DHT22;45277;52.768;18.262;2024-02-26T09:18:23;8.00;99.90
59469;DHT22;45277;52.768;18.262;2024-02-26T09:19:54;8.20;99.90
59469;DHT22;45277;52.768;18.262;2024-02-26T09:21:26;8.20;99.90
59469;DHT22;45277;52.768;18.262;2024-02-26T09:22:57;8.30;99.90
59469;DHT22;45277;52.768;18.262;2024-02-26T09:24:28;8.40;99.90
59469;DHT22;45277;52.768;18.262;2024-02-26T09:26:00;8.40;99.90
59469;DHT22;45277;52.768;18.262;2024-02-26T09:27:31;8.40;99.90
59469;DHT22;45277;52.768;18.262;2024-02-26T09:29:03;8.60;99.90
59469;DHT22;45277;52.768;18.262;2024-02-26T09:30:35;8.70;99.90
59469;DHT22;45277;52.768;18.262;2024-02-26T09:32:06;8.80;99.90
59469;DHT22;45277;52.768;18.262;2024-02-26T09:33:37;8.80;99.90
59469;DHT22;45277;52.768;18.262;2024-02-26T09:35:09;9.00;99.90